Time;durP1;ratioP1;P1;durP2;ratioP2;P2;SDS_P1;SDS_P2;PMS_P1;PMS_P2;Temp;Humidity;BMP_temperature;BMP_pressure;BME280_temperature;BME280_humidity;BME280_pressure;Samples;Min_cycle;Max_cycle;Signal;HPM_P1;HPM_P2
2024/01/12 00:02:09;;;;;;;35.03;22.50;;;-2.80;99.90;;;;;;4993717;28;20184;-83
2024/01/12 00:04:35;;;;;;;38.10;25.23;;;-2.70;99.90;;;;;;4993648;28;20235;-83
2024/01/12 00:07:00;;;;;;;36.27;23.70;;;-2.60;99.90;;;;;;4995327;28;20452;-83
2024/01/12 00:09:26;;;;;;;34.10;23.97;;;-2.70;99.90;;;;;;4996784;28;20217;-83
2024/01/12 00:11:51;;;;;;;31.23;22.10;;;-3.00;99.90;;;;;;5000001;28;20196;-83
2024/01/12 00:14:17;;;;;;;37.93;23.17;;;-3.00;99.90;;;;;;4996195;28;20220;-83
2024/01/12 00:16:47;;;;;;;40.77;24.53;;;-2.80;99.90;;;;;;4990937;28;20214;-83
2024/01/12 00:19:13;;;;;;;37.25;24.67;;;-3.10;99.90;;;;;;4992103;28;20208;-83
2024/01/12 00:21:42;;;;;;;36.33;23.10;;;-3.10;99.90;;;;;;4987893;28;20209;-83
2024/01/12 00:24:07;;;;;;;41.53;22.38;;;-3.20;99.90;;;;;;4985444;28;20464;-83
2024/01/12 00:26:33;;;;;;;36.10;23.40;;;-3.10;99.90;;;;;;4988828;28;20632;-83
2024/01/12 00:28:58;;;;;;;37.03;23.40;;;-3.20;99.90;;;;;;4985185;28;20271;-83
2024/01/12 00:31:24;;;;;;;38.13;23.33;;;-3.30;99.90;;;;;;4986985;28;20184;-84
2024/01/12 00:33:49;;;;;;;41.10;24.07;;;-3.10;99.90;;;;;;4990990;28;20208;-83
2024/01/12 00:36:15;;;;;;;37.70;23.20;;;-3.00;99.90;;;;;;4993294;28;20220;-83
2024/01/12 00:38:41;;;;;;;35.83;23.57;;;-3.10;99.90;;;;;;4991765;28;20222;-83
2024/01/12 00:41:06;;;;;;;41.07;22.90;;;-3.20;99.90;;;;;;4998239;28;20207;-83
2024/01/12 00:43:33;;;;;;;33.97;23.77;;;-3.00;99.90;;;;;;4990877;28;20479;-83
2024/01/12 00:45:58;;;;;;;36.95;21.50;;;-3.10;99.90;;;;;;4992006;28;20217;-83
2024/01/12 00:48:24;;;;;;;38.63;23.17;;;-3.20;99.90;;;;;;4989298;28;20248;-83
2024/01/12 00:50:49;;;;;;;33.87;22.20;;;-2.70;99.90;;;;;;4989047;28;20200;-83
2024/01/12 00:53:15;;;;;;;34.40;23.20;;;-3.10;99.90;;;;;;4991748;28;20199;-83
2024/01/12 00:55:41;;;;;;;34.33;21.73;;;;;;;;;;4987883;28;20209;-83
2024/01/12 00:58:06;;;;;;;38.30;24.30;;;-3.40;99.90;;;;;;4994053;28;20240;-83
2024/01/12 01:00:32;;;;;;;47.40;25.37;;;-3.40;99.90;;;;;;4989506;28;20478;-83
2024/01/12 01:03:01;;;;;;;34.90;24.30;;;-4.10;99.90;;;;;;4995944;28;20281;-83
2024/01/12 01:05:27;;;;;;;38.85;24.02;;;-3.40;99.90;;;;;;4995116;28;20213;-83
2024/01/12 01:07:52;;;;;;;34.37;21.70;;;-3.90;99.90;;;;;;4997347;28;20555;-83
2024/01/12 01:10:18;;;;;;;38.80;24.20;;;-3.70;99.90;;;;;;4994996;28;20200;-83
2024/01/12 01:12:43;;;;;;;38.03;23.37;;;-3.00;99.90;;;;;;4997680;28;20187;-83
2024/01/12 01:15:11;;;;;;;38.50;23.67;;;-3.40;99.90;;;;;;4996378;28;20222;-83
2024/01/12 01:17:37;;;;;;;36.88;23.85;;;-3.40;99.90;;;;;;4992340;28;20249;-83
2024/01/12 01:20:03;;;;;;;36.20;23.30;;;-3.40;99.90;;;;;;4994618;28;20235;-83
2024/01/12 01:22:31;;;;;;;41.03;23.33;;;-3.40;99.90;;;;;;4989717;28;20208;-83
2024/01/12 01:24:57;;;;;;;35.30;23.83;;;-3.10;99.90;;;;;;4989028;28;20469;-83
2024/01/12 01:27:22;;;;;;;40.93;23.50;;;-3.20;99.90;;;;;;5001949;28;20192;-83
2024/01/12 01:29:48;;;;;;;36.60;22.50;;;;;;;;;;4999691;28;20184;-83
2024/01/12 01:32:14;;;;;;;36.92;22.67;;;-3.40;99.90;;;;;;4991562;28;20670;-83
2024/01/12 01:34:39;;;;;;;35.53;24.17;;;-3.20;99.90;;;;;;4985416;28;20279;-84
2024/01/12 01:37:05;;;;;;;32.97;22.00;;;-3.30;99.90;;;;;;4990220;28;20195;-83
2024/01/12 01:39:30;;;;;;;35.50;22.57;;;-3.40;99.90;;;;;;4988031;28;20209;-83
2024/01/12 01:41:56;;;;;;;36.67;23.13;;;-3.50;99.90;;;;;;4990734;28;20211;-83
2024/01/12 01:44:21;;;;;;;36.37;22.00;;;-3.30;99.90;;;;;;4992180;28;20220;-83
2024/01/12 01:46:47;;;;;;;34.17;22.33;;;-3.50;99.90;;;;;;4990684;28;20188;-84
2024/01/12 01:49:13;;;;;;;40.43;24.07;;;-3.00;99.90;;;;;;4994300;28;20204;-83
2024/01/12 01:51:39;;;;;;;36.40;23.53;;;-3.90;99.90;;;;;;4995565;28;20197;-83
2024/01/12 01:54:05;;;;;;;32.17;22.50;;;-3.20;99.90;;;;;;4998216;28;20284;-83
2024/01/12 01:56:30;;;;;;;37.50;23.93;;;-3.50;99.90;;;;;;4995069;28;20506;-83
2024/01/12 01:58:56;;;;;;;31.70;22.73;;;-3.70;99.90;;;;;;4990250;28;20521;-83
2024/01/12 02:01:22;;;;;;;32.87;20.77;;;-3.40;99.90;;;;;;4998839;28;20182;-84
2024/01/12 02:03:48;;;;;;;33.53;22.05;;;-3.20;99.90;;;;;;4987581;28;20181;-84
2024/01/12 02:06:14;;;;;;;31.17;22.40;;;-3.30;99.90;;;;;;4981683;28;20182;-83
2024/01/12 02:08:40;;;;;;;35.63;21.23;;;-3.00;99.90;;;;;;4984723;28;20185;-83
2024/01/12 02:11:06;;;;;;;33.45;21.60;;;-3.00;99.90;;;;;;4980625;28;20490;-83
2024/01/12 02:13:31;;;;;;;37.23;22.80;;;-3.50;99.90;;;;;;4985329;28;20193;-83
2024/01/12 02:15:57;;;;;;;29.17;21.37;;;-3.40;99.90;;;;;;4997780;28;20214;-82
2024/01/12 02:18:23;;;;;;;36.30;20.57;;;-3.40;99.90;;;;;;4986452;28;20220;-83
2024/01/12 02:20:52;;;;;;;34.30;20.57;;;-2.90;99.90;;;;;;4990759;28;20343;-84
2024/01/12 02:23:17;;;;;;;34.25;21.25;;;-3.60;99.90;;;;;;4982750;28;20333;-83
2024/01/12 02:25:44;;;;;;;35.30;23.20;;;-3.30;99.90;;;;;;4988119;28;20548;-84
2024/01/12 02:28:14;;;;;;;36.88;21.23;;;-3.70;99.90;;;;;;4990383;28;20547;-84
2024/01/12 02:30:39;;;;;;;37.28;22.70;;;-3.60;99.90;;;;;;4986047;28;20216;-84
2024/01/12 02:33:08;;;;;;;34.17;21.80;;;-3.70;99.90;;;;;;4987282;28;20268;-83
2024/01/12 02:35:34;;;;;;;36.70;22.95;;;-3.80;99.90;;;;;;4992992;28;20576;-84
2024/01/12 02:38:00;;;;;;;32.63;22.03;;;-3.60;99.90;;;;;;4990518;28;20223;-83
2024/01/12 02:40:25;;;;;;;33.47;20.07;;;-3.60;99.90;;;;;;4996088;28;20253;-84
2024/01/12 02:42:51;;;;;;;36.30;22.10;;;-3.60;99.90;;;;;;4997665;28;20455;-84
2024/01/12 02:45:17;;;;;;;35.73;22.57;;;-3.70;99.90;;;;;;5001494;28;20223;-84
2024/01/12 02:47:43;;;;;;;32.10;21.67;;;-3.60;99.90;;;;;;4995288;28;20336;-84
2024/01/12 02:50:11;;;;;;;36.97;22.70;;;-3.40;99.90;;;;;;4990086;28;20199;-83
2024/01/12 02:52:37;;;;;;;34.42;22.63;;;-3.50;99.90;;;;;;4986607;28;20209;-83
2024/01/12 02:55:03;;;;;;;38.70;24.03;;;-3.20;99.90;;;;;;4988751;28;20564;-83
2024/01/12 02:57:29;;;;;;;38.63;23.10;;;-3.60;99.90;;;;;;4990775;28;20184;-83
2024/01/12 02:59:55;;;;;;;37.95;23.00;;;-3.60;99.90;;;;;;4992618;28;20266;-83
2024/01/12 03:02:20;;;;;;;36.07;23.10;;;-3.80;99.90;;;;;;4992506;28;20197;-83
2024/01/12 03:04:46;;;;;;;34.70;22.50;;;-3.60;99.90;;;;;;4992263;28;20215;-84
2024/01/12 03:07:11;;;;;;;39.17;23.90;;;-3.70;99.90;;;;;;4985724;28;20182;-83
2024/01/12 03:09:38;;;;;;;35.60;22.50;;;-3.40;99.90;;;;;;4989622;28;20215;-83
2024/01/12 03:12:04;;;;;;;37.70;23.35;;;-3.50;99.90;;;;;;4982397;28;20194;-84
2024/01/12 03:14:29;;;;;;;29.20;20.97;;;-3.60;99.90;;;;;;4991085;28;20216;-84
2024/01/12 03:16:55;;;;;;;34.80;22.70;;;-3.10;99.90;;;;;;4993971;28;20186;-83
2024/01/12 03:19:21;;;;;;;31.77;20.40;;;-3.50;99.90;;;;;;4989378;28;20212;-83
2024/01/12 03:21:46;;;;;;;32.97;20.30;;;-3.60;99.90;;;;;;4992889;28;20188;-83
2024/01/12 03:24:12;;;;;;;32.90;21.23;;;-3.60;99.90;;;;;;4990975;28;20307;-84
2024/01/12 03:26:37;;;;;;;36.80;23.00;;;-3.60;99.90;;;;;;4997090;28;20200;-83
2024/01/12 03:29:03;;;;;;;34.13;21.30;;;-3.70;99.90;;;;;;4987083;28;20208;-83
2024/01/12 03:31:29;;;;;;;35.27;22.17;;;-3.60;99.90;;;;;;4990511;28;20192;-84
2024/01/12 03:33:54;;;;;;;34.23;21.67;;;-3.70;99.90;;;;;;4990778;28;20458;-83
2024/01/12 03:36:22;;;;;;;30.83;22.47;;;-3.20;99.90;;;;;;4995632;28;20431;-84
2024/01/12 03:38:48;;;;;;;36.65;21.65;;;-3.70;99.90;;;;;;4988103;28;20274;-83
2024/01/12 03:41:13;;;;;;;34.75;22.23;;;-3.70;99.90;;;;;;5033453;23;20306;-84
2024/01/12 03:43:39;;;;;;;34.30;23.20;;;-3.90;99.90;;;;;;4996262;28;20193;-83
2024/01/12 03:46:05;;;;;;;32.53;21.55;;;-3.80;99.90;;;;;;4988534;28;20227;-85
2024/01/12 03:48:31;;;;;;;34.47;22.80;;;-4.40;99.90;;;;;;4983720;28;20647;-88
2024/01/12 03:50:57;;;;;;;36.47;22.10;;;-3.40;99.90;;;;;;4987099;28;20701;-86
2024/01/12 03:53:22;;;;;;;36.30;23.20;;;-3.40;99.90;;;;;;4988465;28;20309;-88
2024/01/12 03:55:48;;;;;;;37.87;23.13;;;-3.70;99.90;;;;;;4988277;28;20218;-87
2024/01/12 03:58:14;;;;;;;36.27;22.70;;;-4.20;99.90;;;;;;4984467;28;20209;-87
2024/01/12 04:00:39;;;;;;;36.97;23.50;;;-3.70;99.90;;;;;;4987008;28;20249;-88
2024/01/12 04:03:05;;;;;;;38.80;24.53;;;-3.70;99.90;;;;;;4984739;28;20192;-88
2024/01/12 04:05:30;;;;;;;34.17;21.97;;;-3.60;99.90;;;;;;4987080;28;20227;-87
2024/01/12 04:07:56;;;;;;;49.33;24.00;;;-3.70;99.90;;;;;;4979751;28;20559;-87
2024/01/12 04:10:21;;;;;;;38.20;23.13;;;-3.60;99.90;;;;;;4979102;28;20175;-87
2024/01/12 04:12:47;;;;;;;34.13;22.30;;;-3.70;99.90;;;;;;4987059;28;20185;-87
2024/01/12 04:15:13;;;;;;;28.53;19.50;;;-3.90;99.90;;;;;;4986712;28;20196;-87
2024/01/12 04:17:38;;;;;;;35.53;22.87;;;-3.80;99.90;;;;;;4983293;28;20681;-87
2024/01/12 04:20:04;;;;;;;33.50;21.20;;;-3.80;99.90;;;;;;4984683;28;20269;-87
2024/01/12 04:22:30;;;;;;;35.67;22.20;;;-3.90;99.90;;;;;;4985375;28;20220;-87
2024/01/12 04:24:56;;;;;;;35.20;22.60;;;-3.90;99.90;;;;;;4981511;28;20589;-88
2024/01/12 04:27:21;;;;;;;36.80;22.40;;;-3.40;99.90;;;;;;4977572;28;20188;-87
2024/01/12 04:29:47;;;;;;;34.10;21.60;;;-3.40;99.90;;;;;;4977791;28;20184;-86
2024/01/12 04:32:12;;;;;;;38.53;23.50;;;-3.80;99.90;;;;;;4987061;28;20613;-87
2024/01/12 04:34:38;;;;;;;34.43;22.70;;;-3.90;99.90;;;;;;4984011;28;20283;-87
2024/01/12 04:37:05;;;;;;;35.97;22.73;;;-4.10;99.90;;;;;;4983826;28;20208;-87
2024/01/12 04:39:31;;;;;;;37.15;24.83;;;-4.10;99.90;;;;;;4984384;28;20768;-87
2024/01/12 04:41:57;;;;;;;35.47;23.73;;;-4.10;99.90;;;;;;4987249;28;20192;-87
2024/01/12 04:44:22;;;;;;;31.70;21.20;;;-4.00;99.90;;;;;;4987062;28;20575;-87
2024/01/12 04:46:48;;;;;;;42.50;24.43;;;-4.10;99.90;;;;;;4989061;28;20218;-87
2024/01/12 04:49:13;;;;;;;38.03;21.00;;;-3.60;99.90;;;;;;4981134;28;20192;-87
2024/01/12 04:51:39;;;;;;;35.20;23.63;;;-4.00;99.90;;;;;;4982919;28;20679;-87
2024/01/12 04:54:04;;;;;;;37.47;20.97;;;-4.00;99.90;;;;;;4978048;28;20893;-87
2024/01/12 04:56:30;;;;;;;30.90;20.07;;;-3.80;99.90;;;;;;4983915;28;20215;-87
2024/01/12 04:58:55;;;;;;;33.37;22.03;;;-4.40;99.90;;;;;;4982965;28;20547;-86
2024/01/12 05:01:21;;;;;;;38.77;23.53;;;-3.50;99.90;;;;;;4976431;28;20718;-86
2024/01/12 05:03:47;;;;;;;37.10;22.97;;;-3.90;99.90;;;;;;4983768;28;20188;-89
2024/01/12 05:06:13;;;;;;;34.63;23.42;;;-3.40;99.90;;;;;;4992537;28;20204;-86
2024/01/12 05:08:38;;;;;;;32.50;22.63;;;-4.40;99.90;;;;;;4988849;28;20235;-88
2024/01/12 05:11:04;;;;;;;35.20;23.37;;;-3.90;99.90;;;;;;4986181;28;20282;-89
2024/01/12 05:13:29;;;;;;;34.77;21.80;;;-3.20;99.90;;;;;;4981389;28;20295;-86
2024/01/12 05:15:55;;;;;;;29.13;21.80;;;-3.50;99.90;;;;;;4992328;28;20211;-88
2024/01/12 05:18:21;;;;;;;37.50;21.73;;;-3.90;99.90;;;;;;4985959;28;20303;-86
2024/01/12 05:20:47;;;;;;;35.10;21.45;;;-4.50;99.90;;;;;;4994845;28;20594;-86
2024/01/12 05:23:12;;;;;;;38.97;22.57;;;-4.20;99.90;;;;;;4994740;28;20897;-86
2024/01/12 05:25:38;;;;;;;35.37;21.70;;;-4.00;99.90;;;;;;4987652;28;20208;-87
2024/01/12 05:28:03;;;;;;;33.33;22.60;;;-4.00;99.90;;;;;;4993726;28;20192;-87
2024/01/12 05:30:30;;;;;;;32.80;20.83;;;-4.10;99.90;;;;;;4984537;28;20195;-87
2024/01/12 05:32:56;;;;;;;36.88;22.00;;;-3.90;99.90;;;;;;4984448;28;20191;-87
2024/01/12 05:35:21;;;;;;;37.73;22.90;;;-4.00;99.90;;;;;;4984493;28;20212;-87
2024/01/12 05:37:47;;;;;;;32.30;21.97;;;-4.20;99.90;;;;;;4986059;28;20242;-87
2024/01/12 05:40:12;;;;;;;31.60;18.40;;;-3.60;99.90;;;;;;4985320;28;20584;-87
2024/01/12 05:42:38;;;;;;;37.13;22.93;;;-3.60;99.90;;;;;;4986579;28;20738;-87
2024/01/12 05:45:04;;;;;;;34.80;21.63;;;-3.60;99.90;;;;;;4989014;28;20205;-87
2024/01/12 05:47:29;;;;;;;37.00;21.30;;;-4.00;99.90;;;;;;4986021;28;20184;-87
2024/01/12 05:49:55;;;;;;;36.83;21.07;;;-4.10;99.90;;;;;;4986473;28;20446;-87
2024/01/12 05:52:20;;;;;;;39.63;21.50;;;-4.10;99.90;;;;;;4986997;28;20211;-88
2024/01/12 05:54:46;;;;;;;34.23;22.07;;;-4.20;99.90;;;;;;4990399;28;20216;-87
2024/01/12 05:57:11;;;;;;;37.97;19.90;;;-4.20;99.90;;;;;;4986711;28;20267;-86
2024/01/12 05:59:37;;;;;;;35.30;22.27;;;-4.80;99.90;;;;;;5000602;28;20226;-87
2024/01/12 06:02:03;;;;;;;36.47;23.43;;;-4.50;99.90;;;;;;4987245;28;20189;-88
2024/01/12 06:04:29;;;;;;;34.35;21.52;;;-4.20;99.90;;;;;;4991301;28;20205;-87
2024/01/12 06:06:55;;;;;;;32.03;20.73;;;-4.00;99.90;;;;;;4989271;28;20568;-88
2024/01/12 06:09:20;;;;;;;35.90;23.40;;;-4.10;99.90;;;;;;4981813;28;20470;-88
2024/01/12 06:11:46;;;;;;;33.40;21.83;;;-4.00;99.90;;;;;;4989825;28;20482;-88
2024/01/12 06:14:15;;;;;;;36.00;22.60;;;-4.00;99.90;;;;;;4983223;28;20685;-87
2024/01/12 06:16:41;;;;;;;38.38;22.63;;;-4.00;99.90;;;;;;4990773;28;20187;-87
2024/01/12 06:19:07;;;;;;;40.73;22.90;;;-4.10;99.90;;;;;;4987024;28;20215;-88
2024/01/12 06:21:32;;;;;;;38.70;23.20;;;-4.20;99.90;;;;;;4989287;28;20448;-88
2024/01/12 06:23:58;;;;;;;39.23;23.17;;;-4.10;99.90;;;;;;4985916;28;20187;-88
2024/01/12 06:26:23;;;;;;;36.90;23.70;;;-4.80;99.90;;;;;;4989545;28;20187;-88
2024/01/12 06:28:49;;;;;;;36.00;22.73;;;-4.20;99.90;;;;;;4985302;28;20182;-88
2024/01/12 06:31:14;;;;;;;38.10;24.10;;;-4.10;99.90;;;;;;4982725;28;20191;-87
2024/01/12 06:33:40;;;;;;;32.97;23.03;;;-4.00;99.90;;;;;;4985425;28;20194;-87
2024/01/12 06:36:05;;;;;;;35.73;23.07;;;-4.10;99.90;;;;;;4985825;28;20298;-87
2024/01/12 06:38:32;;;;;;;37.43;23.87;;;-4.20;99.90;;;;;;4986154;28;20204;-87
2024/01/12 06:40:57;;;;;;;38.03;24.13;;;-4.10;99.90;;;;;;4980639;28;20200;-87
2024/01/12 06:43:23;;;;;;;37.53;21.30;;;;;;;;;;4983412;28;20188;-88
2024/01/12 06:45:50;;;;;;;39.70;25.57;;;-4.10;99.90;;;;;;4987467;28;20735;-86
2024/01/12 06:48:15;;;;;;;36.95;25.13;;;-4.40;99.90;;;;;;4988941;28;20500;-87
2024/01/12 06:50:41;;;;;;;36.83;24.03;;;-4.10;99.90;;;;;;4985995;28;20271;-88
2024/01/12 06:53:09;;;;;;;36.60;24.13;;;-4.10;99.90;;;;;;4985831;28;20192;-90
2024/01/12 06:55:36;;;;;;;37.58;22.20;;;-4.30;99.90;;;;;;4990115;28;20311;-91
2024/01/12 06:58:01;;;;;;;32.58;21.83;;;-4.20;99.90;;;;;;4992900;28;20266;-91
2024/01/12 07:00:27;;;;;;;38.40;24.07;;;-4.10;99.90;;;;;;4988428;28;20553;-92
2024/01/12 07:02:54;;;;;;;36.83;23.60;;;-4.00;99.90;;;;;;4983121;28;20202;-90
2024/01/12 07:05:20;;;;;;;36.63;23.88;;;-4.20;99.90;;;;;;4986523;28;20213;-90
2024/01/12 07:07:46;;;;;;;36.03;23.73;;;-3.70;99.90;;;;;;4991295;28;20180;-89
2024/01/12 07:10:12;;;;;;;31.58;20.42;;;-3.60;99.90;;;;;;4989528;28;20192;-89
2024/01/12 07:12:38;;;;;;;37.37;24.43;;;-4.00;99.90;;;;;;4985443;28;20187;-89
2024/01/12 07:15:05;;;;;;;35.83;22.55;;;-3.60;99.90;;;;;;4985187;28;20215;-91
2024/01/12 07:17:31;;;;;;;36.20;23.25;;;-4.20;99.90;;;;;;4981633;28;20192;-88
2024/01/12 07:19:57;;;;;;;34.37;22.33;;;-4.60;99.90;;;;;;4979822;28;20208;-89
2024/01/12 07:22:22;;;;;;;36.13;22.47;;;-4.80;99.90;;;;;;4984158;28;20187;-91
2024/01/12 07:24:48;;;;;;;40.00;24.70;;;-4.20;99.90;;;;;;4988185;28;20584;-90
2024/01/12 07:27:17;;;;;;;37.80;25.85;;;-4.30;99.90;;;;;;4983686;28;20260;-89
2024/01/12 07:29:43;;;;;;;38.28;26.23;;;;;;;;;;4986501;28;20316;-85
2024/01/12 07:32:08;;;;;;;40.40;25.53;;;-4.20;99.90;;;;;;4990733;28;20215;-88
2024/01/12 07:34:34;;;;;;;34.30;23.50;;;-4.10;99.90;;;;;;4984241;28;20468;-89
2024/01/12 07:37:00;;;;;;;35.70;22.60;;;;;;;;;;4988814;28;20200;-86
2024/01/12 07:39:26;;;;;;;38.10;23.52;;;-4.10;99.90;;;;;;4991551;28;20232;-87
2024/01/12 07:41:51;;;;;;;41.47;24.60;;;-3.90;99.90;;;;;;4989656;28;20287;-87
2024/01/12 07:44:17;;;;;;;40.50;23.37;;;-3.90;99.90;;;;;;4984822;28;20683;-86
2024/01/12 07:46:43;;;;;;;36.47;24.23;;;-3.80;99.90;;;;;;4988729;28;20200;-84
2024/01/12 07:49:09;;;;;;;40.58;25.95;;;-3.80;99.90;;;;;;4988918;28;20188;-85
2024/01/12 07:51:34;;;;;;;33.73;22.07;;;-3.50;99.90;;;;;;4987609;28;20392;-86
2024/01/12 07:54:00;;;;;;;35.87;23.57;;;-4.20;99.90;;;;;;4993955;28;20281;-86
2024/01/12 07:56:25;;;;;;;43.50;25.77;;;-4.00;99.90;;;;;;4996433;28;20451;-86
2024/01/12 07:58:51;;;;;;;36.90;23.50;;;-4.50;99.90;;;;;;4988319;28;20204;-89
2024/01/12 08:01:17;;;;;;;38.13;22.50;;;-4.10;99.90;;;;;;4984257;28;20202;-90
2024/01/12 08:03:44;;;;;;;34.42;22.77;;;-3.70;99.90;;;;;;5000264;28;20192;-89
2024/01/12 08:06:10;;;;;;;36.53;23.55;;;-3.70;99.90;;;;;;4996304;28;20250;-89
2024/01/12 08:08:36;;;;;;;41.10;23.67;;;-3.70;99.90;;;;;;4980969;28;20227;-89
2024/01/12 08:11:02;;;;;;;39.72;24.83;;;-3.80;99.90;;;;;;4988469;28;20205;-91
2024/01/12 08:13:27;;;;;;;34.57;23.87;;;-3.20;99.90;;;;;;4985877;28;20228;-90
2024/01/12 08:15:53;;;;;;;41.63;22.60;;;-3.80;99.90;;;;;;4981903;28;20682;-90
2024/01/12 08:18:18;;;;;;;35.47;22.23;;;-3.80;99.90;;;;;;4979789;28;20295;-90
2024/01/12 08:20:45;;;;;;;34.07;24.17;;;-3.80;99.90;;;;;;4984216;28;20276;-85
2024/01/12 08:23:11;;;;;;;32.08;21.95;;;-3.90;99.90;;;;;;4992767;28;20182;-88
2024/01/12 08:25:36;;;;;;;39.03;22.67;;;-3.70;99.90;;;;;;4989521;28;20271;-88
2024/01/12 08:28:03;;;;;;;38.10;24.03;;;-4.20;99.90;;;;;;4996764;28;20211;-88
2024/01/12 08:30:28;;;;;;;31.50;21.50;;;-3.70;99.90;;;;;;5001159;28;20189;-88
2024/01/12 08:32:54;;;;;;;37.30;25.03;;;-3.60;99.90;;;;;;4975233;28;20283;-90
2024/01/12 08:35:19;;;;;;;39.60;24.80;;;-3.90;99.90;;;;;;4986157;28;20211;-89
2024/01/12 08:37:45;;;;;;;39.43;25.87;;;-3.60;99.90;;;;;;4986539;28;20620;-89
2024/01/12 08:40:11;;;;;;;38.70;23.80;;;-3.60;99.90;;;;;;4980087;28;20213;-90
2024/01/12 08:42:39;;;;;;;43.27;28.23;;;-3.50;99.90;;;;;;4983067;28;20834;-91
2024/01/12 08:45:05;;;;;;;43.10;27.88;;;-3.30;99.90;;;;;;4986771;28;20463;-90
2024/01/12 08:47:30;;;;;;;43.20;27.05;;;-2.50;99.90;;;;;;4984021;28;20205;-92
2024/01/12 08:49:58;;;;;;;47.17;29.52;;;-2.60;99.90;;;;;;4988181;28;20670;-90
2024/01/12 08:52:25;;;;;;;47.90;28.48;;;-2.60;99.90;;;;;;4981548;28;20200;-87
2024/01/12 08:54:50;;;;;;;44.85;29.92;;;-2.30;99.90;;;;;;4980707;28;20237;-87
2024/01/12 08:57:16;;;;;;;47.57;30.10;;;-2.00;99.90;;;;;;4984028;28;20607;-89
2024/01/12 08:59:42;;;;;;;52.70;31.33;;;-1.60;99.90;;;;;;4978966;28;20294;-89
2024/01/12 09:02:07;;;;;;;47.20;29.37;;;-1.80;99.90;;;;;;4977877;28;20233;-88
2024/01/12 09:04:34;;;;;;;51.90;31.47;;;-1.50;99.90;;;;;;4986995;28;20229;-90
2024/01/12 09:07:00;;;;;;;54.30;34.50;;;-1.90;99.90;;;;;;4984353;28;20196;-92
2024/01/12 09:09:25;;;;;;;45.87;31.50;;;-2.10;99.90;;;;;;4994691;28;20182;-91
2024/01/12 09:11:51;;;;;;;45.53;30.93;;;-1.60;99.90;;;;;;4988166;28;20186;-90
2024/01/12 09:14:17;;;;;;;47.93;31.53;;;-1.60;99.90;;;;;;4984392;28;20218;-92
2024/01/12 09:16:43;;;;;;;47.30;31.88;;;-1.20;99.90;;;;;;4989800;28;20190;-90
2024/01/12 09:19:08;;;;;;;48.70;33.07;;;-1.50;99.90;;;;;;4993524;28;20273;-92
2024/01/12 09:21:34;;;;;;;57.00;32.70;;;-1.40;99.90;;;;;;4984324;28;20191;-89
2024/01/12 09:23:59;;;;;;;49.93;31.40;;;-0.90;99.90;;;;;;4985799;28;20222;-87
2024/01/12 09:26:25;;;;;;;41.70;29.00;;;-1.30;99.90;;;;;;4989199;28;20190;-89
2024/01/12 09:28:50;;;;;;;51.53;32.63;;;-0.10;99.90;;;;;;4982272;28;20192;-87
2024/01/12 09:31:16;;;;;;;43.93;30.23;;;0.20;99.90;;;;;;4981056;28;20190;-89
2024/01/12 09:33:41;;;;;;;47.93;31.57;;;1.30;99.90;;;;;;4979110;28;20280;-88
2024/01/12 09:36:07;;;;;;;45.47;32.27;;;1.10;99.40;;;;;;4982995;28;20226;-90
2024/01/12 09:38:34;;;;;;;48.60;32.80;;;1.10;99.30;;;;;;4984006;28;20208;-88
2024/01/12 09:41:02;;;;;;;44.67;31.25;;;1.90;98.90;;;;;;4981435;28;20463;-87
2024/01/12 09:43:31;;;;;;;42.40;31.30;;;2.80;97.30;;;;;;4979781;28;20185;-86
2024/01/12 09:46:04;;;;;;;45.72;31.70;;;2.80;95.20;;;;;;4978156;28;20695;-88
2024/01/12 09:48:30;;;;;;;43.78;31.52;;;3.40;95.00;;;;;;4988162;28;20186;-86
2024/01/12 09:50:56;;;;;;;47.05;35.03;;;3.20;93.50;;;;;;4981397;28;20215;-88
2024/01/12 09:53:22;;;;;;;49.53;33.58;;;3.70;92.60;;;;;;4989343;28;20277;-87
2024/01/12 09:55:48;;;;;;;45.83;32.87;;;3.90;92.20;;;;;;4984033;28;20200;-87
2024/01/12 09:58:16;;;;;;;41.00;32.40;;;4.60;91.80;;;;;;4985256;28;20269;-86
2024/01/12 10:00:43;;;;;;;40.05;30.52;;;4.40;90.50;;;;;;4977131;28;20201;-87
2024/01/12 10:03:10;;;;;;;42.63;32.50;;;4.80;90.60;;;;;;4985641;28;20284;-87
2024/01/12 10:05:37;;;;;;;43.22;30.85;;;3.60;90.80;;;;;;4981864;28;20679;-85
2024/01/12 10:08:04;;;;;;;40.42;30.80;;;4.10;90.60;;;;;;4984756;28;20242;-86
2024/01/12 10:10:29;;;;;;;42.08;31.15;;;3.90;91.10;;;;;;4985764;28;20187;-87
2024/01/12 10:12:55;;;;;;;43.73;31.63;;;4.40;91.40;;;;;;4980501;28;20192;-86
2024/01/12 10:15:20;;;;;;;47.80;31.93;;;4.00;90.80;;;;;;4984573;28;20247;-86
2024/01/12 10:17:48;;;;;;;46.50;33.40;;;4.40;90.60;;;;;;4987130;28;20195;-86
2024/01/12 10:20:15;;;;;;;46.83;32.63;;;3.70;90.40;;;;;;4982720;28;20201;-87
2024/01/12 10:22:40;;;;;;;45.30;32.80;;;3.50;90.50;;;;;;4979333;28;20185;-87
2024/01/12 10:25:07;;;;;;;42.83;32.90;;;3.40;92.30;;;;;;4977118;28;20217;-88
2024/01/12 10:27:32;;;;;;;47.53;33.97;;;3.20;93.10;;;;;;4985372;28;20272;-87
2024/01/12 10:29:58;;;;;;;40.90;30.80;;;3.10;93.20;;;;;;4985913;28;20264;-87
2024/01/12 10:32:26;;;;;;;45.40;31.47;;;3.30;92.70;;;;;;4987566;28;20267;-88
2024/01/12 10:34:52;;;;;;;46.60;31.20;;;3.50;92.70;;;;;;4982752;28;20217;-86
2024/01/12 10:37:19;;;;;;;44.38;33.17;;;3.80;92.40;;;;;;4990660;28;20193;-85
2024/01/12 10:39:46;;;;;;;40.00;29.92;;;3.60;91.30;;;;;;4980764;28;20577;-85
2024/01/12 10:42:13;;;;;;;45.30;32.60;;;4.10;91.30;;;;;;4987908;28;20197;-85
2024/01/12 10:44:40;;;;;;;39.90;31.00;;;3.40;91.40;;;;;;4989879;28;20279;-85
2024/01/12 10:47:07;;;;;;;43.10;31.25;;;3.70;91.30;;;;;;4983894;28;20698;-85
2024/01/12 10:49:48;;;;;;;41.67;31.10;;;3.80;91.00;;;;;;5003165;28;20186;-85
2024/01/12 10:52:32;;;;;;;42.75;31.05;;;4.10;91.40;;;;;;4985431;28;20195;-85
2024/01/12 10:55:07;;;;;;;40.28;32.25;;;4.30;91.30;;;;;;4992279;28;20264;-86
2024/01/12 10:57:33;;;;;;;43.60;31.10;;;5.00;90.80;;;;;;4988053;28;20188;-86
2024/01/12 10:59:59;;;;;;;41.17;30.83;;;4.50;90.70;;;;;;4990973;28;20298;-85
2024/01/12 11:02:25;;;;;;;41.67;29.10;;;4.50;90.00;;;;;;4995501;28;20188;-85
2024/01/12 11:04:52;;;;;;;41.15;31.77;;;4.80;90.60;;;;;;5003604;28;20210;-85
2024/01/12 11:07:18;;;;;;;41.13;29.90;;;4.80;90.40;;;;;;4986886;28;20266;-85
2024/01/12 11:09:44;;;;;;;41.72;31.00;;;4.40;90.30;;;;;;4997644;28;20197;-85
2024/01/12 11:12:14;;;;;;;46.37;31.33;;;3.80;91.10;;;;;;4982524;28;20194;-85
2024/01/12 11:14:41;;;;;;;42.58;30.98;;;3.30;92.10;;;;;;4996002;28;20215;-85
2024/01/12 11:17:06;;;;;;;41.67;30.23;;;3.70;91.70;;;;;;4989467;28;20279;-85
2024/01/12 11:19:33;;;;;;;41.43;30.20;;;4.00;91.90;;;;;;4991711;28;20285;-84
2024/01/12 11:22:09;;;;;;;40.00;27.45;;;3.80;91.50;;;;;;4986948;28;20654;-84
2024/01/12 11:24:36;;;;;;;40.67;29.25;;;3.60;91.50;;;;;;4989840;28;20228;-86
2024/01/12 11:27:02;;;;;;;43.00;31.02;;;3.80;92.10;;;;;;4990870;28;20260;-86
2024/01/12 11:29:35;;;;;;;39.25;28.00;;;3.80;91.60;;;;;;4985878;28;20680;-87
2024/01/12 11:32:04;;;;;;;39.40;28.38;;;2.80;91.30;;;;;;4994415;28;20539;-85
2024/01/12 11:34:34;;;;;;;34.70;28.38;;;3.60;91.80;;;;;;4995006;28;20222;-86
2024/01/12 11:37:01;;;;;;;40.47;28.15;;;3.60;91.60;;;;;;4992409;28;20193;-86
2024/01/12 11:39:32;;;;;;;37.45;28.23;;;3.80;92.00;;;;;;4989403;28;20222;-85
2024/01/12 11:41:59;;;;;;;40.45;29.48;;;3.90;91.40;;;;;;4995599;28;20213;-86
2024/01/12 11:44:25;;;;;;;37.47;26.58;;;4.00;91.50;;;;;;4990025;28;20290;-87
2024/01/12 11:46:51;;;;;;;42.85;29.98;;;3.80;91.80;;;;;;4990544;28;20185;-88
2024/01/12 11:49:18;;;;;;;42.77;29.20;;;3.70;92.20;;;;;;5003462;28;20198;-87
2024/01/12 11:51:44;;;;;;;41.47;27.70;;;3.60;92.20;;;;;;4995846;28;21034;-87
2024/01/12 11:54:10;;;;;;;45.70;28.85;;;3.40;92.50;;;;;;4990455;28;20217;-86
2024/01/12 11:56:36;;;;;;;36.20;27.40;;;3.20;91.60;;;;;;4994087;28;20222;-85
2024/01/12 11:59:02;;;;;;;40.33;28.90;;;4.40;91.50;;;;;;4995390;28;20492;-86
2024/01/12 12:01:28;;;;;;;40.87;29.27;;;4.20;91.60;;;;;;4995502;28;20771;-86
2024/01/12 12:03:54;;;;;;;36.07;30.10;;;3.00;92.00;;;;;;4995095;28;20441;-87
2024/01/12 12:06:20;;;;;;;40.03;28.90;;;2.90;92.40;;;;;;4990825;28;20181;-86
2024/01/12 12:08:45;;;;;;;40.77;27.50;;;3.30;93.30;;;;;;4996298;28;20188;-86
2024/01/12 12:11:13;;;;;;;54.23;30.87;;;2.30;93.90;;;;;;4989417;28;20452;-86
2024/01/12 12:13:40;;;;;;;44.13;29.92;;;3.00;94.70;;;;;;4991517;28;20212;-85
2024/01/12 12:16:06;;;;;;;42.88;30.38;;;1.90;94.20;;;;;;4991161;28;20212;-86
2024/01/12 12:18:33;;;;;;;40.92;29.85;;;2.10;94.70;;;;;;4992148;28;20280;-86
2024/01/12 12:21:02;;;;;;;37.55;26.67;;;2.90;95.10;;;;;;4990054;28;20190;-86
2024/01/12 12:23:29;;;;;;;37.80;28.02;;;2.80;94.20;;;;;;4997704;28;20218;-87
2024/01/12 12:25:55;;;;;;;39.28;28.67;;;3.00;94.20;;;;;;4983457;28;20685;-86